Time;durP1;ratioP1;P1;durP2;ratioP2;P2;SDS_P1;SDS_P2;PMS_P1;PMS_P2;Temp;Humidity;BMP_temperature;BMP_pressure;BME280_temperature;BME280_humidity;BME280_pressure;Samples;Min_cycle;Max_cycle;Signal;HPM_P1;HPM_P2
2021/05/15 00:00:15;;;;;;;5.20;4.20;;;11.00;79.10;;;;;;2050067;28;20062;-84
2021/05/15 00:01:17;;;;;;;6.63;4.55;;;11.00;79.10;;;;;;2064520;28;20041;-85
2021/05/15 00:02:18;;;;;;;5.47;4.20;;;11.00;79.20;;;;;;2072905;28;20499;-84
2021/05/15 00:03:18;;;;;;;6.35;4.50;;;11.00;79.20;;;;;;2066028;28;20030;-83
2021/05/15 00:04:19;;;;;;;5.63;4.20;;;11.00;79.20;;;;;;2072645;28;20034;-84
2021/05/15 00:05:19;;;;;;;6.55;4.82;;;11.00;79.20;;;;;;2069502;28;20136;-83
2021/05/15 00:06:20;;;;;;;7.95;4.32;;;11.10;79.30;;;;;;2063921;28;20516;-84
2021/05/15 00:07:21;;;;;;;5.43;4.05;;;11.10;79.30;;;;;;2064768;28;20034;-84
2021/05/15 00:08:21;;;;;;;6.30;4.28;;;11.10;79.30;;;;;;2056660;28;20451;-84
2021/05/15 00:09:22;;;;;;;6.50;4.32;;;11.10;79.30;;;;;;2056200;28;20472;-84
2021/05/15 00:10:22;;;;;;;6.60;4.47;;;11.00;79.20;;;;;;2064621;28;20126;-84
2021/05/15 00:11:24;;;;;;;7.55;4.60;;;11.00;79.20;;;;;;2061248;28;20109;-85
2021/05/15 00:12:24;;;;;;;8.15;4.30;;;11.00;79.30;;;;;;2064200;28;20401;-84
2021/05/15 00:13:26;;;;;;;5.75;4.38;;;11.10;79.30;;;;;;2072608;28;20036;-84
2021/05/15 00:14:27;;;;;;;7.32;4.75;;;11.10;79.30;;;;;;2057094;28;20170;-84
2021/05/15 00:15:27;;;;;;;7.05;4.57;;;11.10;79.30;;;;;;2067984;28;20046;-84
2021/05/15 00:16:28;;;;;;;6.75;4.78;;;11.10;79.30;;;;;;2074346;28;20495;-84
2021/05/15 00:17:29;;;;;;;6.10;4.70;;;11.10;79.20;;;;;;2072653;28;20451;-85
2021/05/15 00:18:29;;;;;;;7.38;5.03;;;11.10;79.10;;;;;;2064554;28;20097;-85
2021/05/15 00:19:30;;;;;;;8.23;4.90;;;11.20;79.10;;;;;;2064609;28;20081;-85
2021/05/15 00:20:31;;;;;;;6.15;4.55;;;11.10;79.00;;;;;;2064287;28;20620;-85
2021/05/15 00:21:31;;;;;;;7.18;4.70;;;11.10;79.00;;;;;;2064616;28;20035;-85
2021/05/15 00:22:32;;;;;;;9.63;5.32;;;11.10;79.00;;;;;;2056585;28;20037;-85
2021/05/15 00:23:33;;;;;;;7.25;5.07;;;11.10;79.00;;;;;;2056399;28;20026;-85
2021/05/15 00:24:34;;;;;;;6.47;4.82;;;11.10;79.00;;;;;;2073618;28;20104;-84
2021/05/15 00:25:34;;;;;;;8.77;5.55;;;11.10;79.00;;;;;;2058402;28;20026;-85
2021/05/15 00:26:35;;;;;;;7.45;5.43;;;11.10;79.00;;;;;;2050228;28;20472;-85
2021/05/15 00:27:36;;;;;;;9.10;5.85;;;11.10;79.00;;;;;;2073234;28;20038;-85
2021/05/15 00:28:37;;;;;;;9.40;5.85;;;11.10;79.00;;;;;;2065899;28;20396;-85
2021/05/15 00:29:38;;;;;;;7.85;5.75;;;11.10;79.00;;;;;;2066960;28;20046;-85
2021/05/15 00:30:38;;;;;;;8.85;6.13;;;11.10;79.00;;;;;;2066228;28;20057;-85
2021/05/15 00:31:39;;;;;;;9.77;6.10;;;11.10;79.10;;;;;;2065452;28;20125;-85
2021/05/15 00:32:40;;;;;;;9.00;6.10;;;11.10;79.10;;;;;;2066135;28;20026;-85
2021/05/15 00:33:41;;;;;;;9.07;5.95;;;11.00;79.00;;;;;;2067501;28;20038;-85
2021/05/15 00:34:41;;;;;;;8.00;5.85;;;11.00;79.00;;;;;;2050073;28;20042;-85
2021/05/15 00:35:42;;;;;;;9.38;6.78;;;11.00;79.00;;;;;;2060777;28;20165;-85
2021/05/15 00:36:43;;;;;;;8.50;6.15;;;11.00;79.10;;;;;;2067325;28;20424;-84
2021/05/15 00:37:44;;;;;;;8.88;6.38;;;11.00;79.10;;;;;;2067738;28;20465;-84
2021/05/15 00:38:45;;;;;;;8.65;5.80;;;11.00;79.10;;;;;;2058126;28;20023;-85
2021/05/15 00:39:45;;;;;;;8.82;6.28;;;11.00;79.70;;;;;;2058019;28;20035;-85
2021/05/15 00:40:46;;;;;;;7.78;6.03;;;11.00;79.00;;;;;;2057466;28;20059;-85
2021/05/15 00:41:46;;;;;;;8.77;6.55;;;11.00;79.00;;;;;;2065739;28;20536;-85
2021/05/15 00:42:47;;;;;;;9.55;5.95;;;11.00;79.00;;;;;;2058103;28;20105;-85
2021/05/15 00:44:13;;;;;;;9.35;6.07;;;11.00;79.00;;;;;;2057961;28;20037;-85
2021/05/15 00:45:15;;;;;;;7.82;5.85;;;11.00;78.90;;;;;;2065881;28;20039;-85
2021/05/15 00:46:16;;;;;;;7.65;5.90;;;11.00;78.90;;;;;;2071400;28;20112;-84
2021/05/15 00:47:21;;;;;;;7.22;5.57;;;11.00;78.90;;;;;;2074414;28;20037;-85
2021/05/15 00:48:22;;;;;;;7.95;6.20;;;11.00;78.90;;;;;;2076183;28;20381;-85
2021/05/15 00:49:23;;;;;;;9.80;6.45;;;11.00;78.90;;;;;;2088586;28;20031;-85
2021/05/15 00:50:23;;;;;;;8.52;6.05;;;11.00;78.80;;;;;;2075111;28;20030;-84
2021/05/15 00:51:24;;;;;;;9.45;6.03;;;11.00;78.80;;;;;;2065761;28;20559;-84
2021/05/15 00:52:31;;;;;;;7.50;5.90;;;11.00;78.80;;;;;;2074086;28;20022;-85
2021/05/15 00:53:32;;;;;;;8.20;6.22;;;11.00;78.90;;;;;;2073175;28;20089;-84
2021/05/15 00:54:36;;;;;;;8.38;6.30;;;11.00;78.90;;;;;;2071048;28;20607;-84
2021/05/15 00:55:37;;;;;;;8.85;6.00;;;10.90;78.80;;;;;;2075131;28;20052;-84
2021/05/15 00:56:39;;;;;;;7.72;6.03;;;10.90;78.90;;;;;;2074002;28;20407;-84
2021/05/15 00:57:41;;;;;;;8.15;5.90;;;10.90;79.00;;;;;;2074559;28;20046;-84
2021/05/15 00:58:42;;;;;;;8.07;6.32;;;10.90;79.00;;;;;;2073874;28;20033;-84
2021/05/15 00:59:43;;;;;;;8.13;5.90;;;10.90;79.00;;;;;;2076838;28;20125;-84
2021/05/15 01:00:44;;;;;;;8.30;6.13;;;10.90;79.00;;;;;;2065660;28;20022;-85
2021/05/15 01:01:45;;;;;;;7.18;5.93;;;10.90;79.00;;;;;;2072385;28;20526;-85
2021/05/15 01:02:45;;;;;;;8.10;5.95;;;10.90;79.00;;;;;;2073218;28;20168;-84
2021/05/15 01:03:46;;;;;;;8.57;5.93;;;10.80;79.00;;;;;;2072630;28;20496;-84
2021/05/15 01:04:46;;;;;;;7.65;5.90;;;10.90;79.20;;;;;;2057842;28;20027;-84
2021/05/15 01:05:47;;;;;;;7.65;5.85;;;10.80;79.10;;;;;;2065758;28;20515;-84
2021/05/15 01:06:48;;;;;;;8.55;6.07;;;10.80;79.20;;;;;;2073150;28;20530;-84
2021/05/15 01:07:49;;;;;;;9.18;6.47;;;10.80;79.20;;;;;;2064787;28;20512;-84
2021/05/15 01:08:50;;;;;;;9.23;6.30;;;10.80;79.10;;;;;;2073999;28;20504;-84
2021/05/15 01:09:51;;;;;;;8.23;5.90;;;10.80;79.10;;;;;;2065336;28;20030;-85
2021/05/15 01:10:52;;;;;;;9.32;6.10;;;10.80;79.70;;;;;;2073757;28;20038;-85
2021/05/15 01:11:52;;;;;;;8.85;6.25;;;10.80;79.10;;;;;;2064105;28;20018;-84
2021/05/15 01:12:56;;;;;;;8.40;5.97;;;10.80;79.10;;;;;;2065636;28;20588;-84
2021/05/15 01:14:00;;;;;;;7.68;6.00;;;10.80;79.20;;;;;;2074423;28;20054;-84
2021/05/15 01:15:00;;;;;;;8.45;6.03;;;10.80;79.20;;;;;;2071496;28;20038;-83
2021/05/15 01:16:01;;;;;;;9.00;6.72;;;10.80;79.20;;;;;;2065047;28;20065;-84
2021/05/15 01:17:03;;;;;;;7.88;5.95;;;10.80;79.20;;;;;;2081384;28;20068;-84
2021/05/15 01:18:04;;;;;;;7.95;5.45;;;10.80;79.30;;;;;;2079038;28;20530;-83
2021/05/15 01:19:05;;;;;;;7.28;6.05;;;10.70;79.20;;;;;;2073656;28;20057;-84
2021/05/15 01:20:06;;;;;;;10.32;6.38;;;10.80;79.30;;;;;;2073588;28;20034;-84
2021/05/15 01:21:07;;;;;;;8.65;6.30;;;10.80;79.40;;;;;;2080920;28;20029;-84
2021/05/15 01:22:13;;;;;;;8.05;6.13;;;10.70;79.30;;;;;;2075869;28;20026;-83
2021/05/15 01:23:14;;;;;;;7.88;6.22;;;10.70;79.40;;;;;;2079985;28;20087;-83
2021/05/15 01:24:14;;;;;;;9.20;6.57;;;10.70;79.40;;;;;;2081622;28;20025;-84
2021/05/15 01:25:16;;;;;;;8.05;6.10;;;10.70;79.40;;;;;;2064705;28;20030;-83
2021/05/15 01:26:30;;;;;;;8.25;6.07;;;10.70;79.40;;;;;;2065930;28;20030;-84
2021/05/15 01:27:31;;;;;;;9.00;6.30;;;10.70;79.40;;;;;;2081354;28;20024;-83
2021/05/15 01:28:32;;;;;;;8.13;5.85;;;10.70;79.40;;;;;;2073352;28;20031;-84
2021/05/15 01:29:33;;;;;;;8.90;6.45;;;10.60;79.40;;;;;;2057264;28;20050;-84
2021/05/15 01:30:34;;;;;;;9.70;6.90;;;10.70;79.50;;;;;;2070773;28;20516;-84
2021/05/15 01:31:38;;;;;;;9.13;6.40;;;10.70;79.50;;;;;;2071802;28;20080;-84
2021/05/15 01:32:41;;;;;;;8.18;6.13;;;10.70;79.60;;;;;;2066121;28;20500;-84
2021/05/15 01:33:42;;;;;;;9.27;6.20;;;10.70;79.60;;;;;;2069901;28;20030;-84
2021/05/15 01:34:43;;;;;;;9.48;6.60;;;10.70;80.20;;;;;;2065174;28;20081;-84
2021/05/15 01:35:43;;;;;;;7.95;6.20;;;10.70;79.60;;;;;;2065122;28;20070;-84
2021/05/15 01:36:44;;;;;;;8.23;6.22;;;10.70;79.70;;;;;;2065556;28;20027;-84
2021/05/15 01:37:45;;;;;;;9.38;6.55;;;10.70;79.70;;;;;;2080342;28;20025;-84
2021/05/15 01:38:46;;;;;;;8.70;6.03;;;10.70;79.70;;;;;;2065145;28;20506;-84
2021/05/15 01:39:47;;;;;;;9.00;6.60;;;10.70;79.60;;;;;;2072939;28;20041;-84
2021/05/15 01:40:47;;;;;;;7.97;6.65;;;10.70;79.70;;;;;;2072482;28;20044;-84
2021/05/15 01:41:48;;;;;;;10.45;6.53;;;10.70;79.60;;;;;;2073602;28;20053;-84
2021/05/15 01:42:49;;;;;;;8.63;6.15;;;10.70;79.60;;;;;;2079635;28;20036;-83
2021/05/15 01:43:50;;;;;;;8.05;6.50;;;10.70;79.50;;;;;;2065534;28;20154;-84
2021/05/15 01:44:50;;;;;;;9.00;6.57;;;10.70;79.60;;;;;;2068206;28;20080;-83
2021/05/15 01:45:51;;;;;;;8.45;6.07;;;10.70;80.10;;;;;;2065934;28;20042;-84
2021/05/15 01:46:52;;;;;;;9.43;6.00;;;10.70;79.50;;;;;;2065338;28;20031;-84
2021/05/15 01:47:53;;;;;;;8.15;6.05;;;10.70;79.60;;;;;;2065152;28;20026;-84
2021/05/15 01:48:53;;;;;;;9.15;6.55;;;10.70;79.50;;;;;;2073394;28;20108;-84
2021/05/15 01:49:54;;;;;;;10.18;6.90;;;10.80;79.70;;;;;;2073543;28;20030;-85
2021/05/15 01:51:05;;;;;;;7.78;6.28;;;10.80;79.60;;;;;;2076254;28;20104;-84
2021/05/15 01:52:06;;;;;;;8.38;6.25;;;10.80;79.70;;;;;;2073754;28;20030;-84
2021/05/15 01:53:07;;;;;;;9.32;6.57;;;10.80;79.70;;;;;;2073310;28;20147;-84
2021/05/15 01:54:07;;;;;;;9.48;6.78;;;10.80;80.20;;;;;;2073642;28;20049;-84
2021/05/15 01:55:21;;;;;;;9.50;6.95;;;10.80;79.70;;;;;;2073315;28;20030;-84
2021/05/15 01:56:26;;;;;;;9.57;5.95;;;10.80;79.60;;;;;;2076915;28;20032;-84
2021/05/15 01:57:27;;;;;;;9.77;7.03;;;10.80;79.70;;;;;;2080856;28;20025;-84
2021/05/15 01:58:28;;;;;;;9.05;6.60;;;10.80;79.60;;;;;;2073430;28;20022;-84
2021/05/15 01:59:28;;;;;;;8.82;6.25;;;10.80;79.60;;;;;;2067582;28;20026;-84
2021/05/15 02:00:29;;;;;;;9.95;6.82;;;10.80;79.70;;;;;;2073559;28;20100;-84
2021/05/15 02:01:30;;;;;;;9.02;6.28;;;10.80;79.60;;;;;;2073529;28;20284;-84
2021/05/15 02:02:30;;;;;;;9.38;6.65;;;10.80;79.60;;;;;;2073203;28;20061;-83
2021/05/15 02:03:32;;;;;;;8.82;6.70;;;10.80;79.80;;;;;;2064510;28;20386;-84
2021/05/15 02:04:32;;;;;;;9.52;6.63;;;10.80;79.80;;;;;;2071453;28;20369;-82
2021/05/15 02:05:33;;;;;;;9.80;6.50;;;10.80;79.80;;;;;;2074290;28;20036;-83
2021/05/15 02:06:34;;;;;;;8.15;6.40;;;10.80;79.80;;;;;;2064892;28;20038;-83
2021/05/15 02:07:34;;;;;;;10.95;6.78;;;10.80;79.80;;;;;;2063845;28;20018;-83
2021/05/15 02:08:36;;;;;;;8.40;6.50;;;10.80;79.90;;;;;;2061125;28;20524;-83
2021/05/15 02:09:36;;;;;;;9.65;7.00;;;10.80;79.90;;;;;;2051918;28;20039;-84
2021/05/15 02:10:37;;;;;;;8.05;6.50;;;10.80;79.90;;;;;;2059574;28;20054;-83
2021/05/15 02:11:39;;;;;;;8.32;6.75;;;10.80;79.90;;;;;;2065340;28;20513;-84
2021/05/15 02:12:39;;;;;;;9.10;7.10;;;10.70;79.90;;;;;;2072940;28;20076;-83
2021/05/15 02:13:40;;;;;;;9.18;6.82;;;10.70;80.00;;;;;;2064868;28;20120;-84
2021/05/15 02:14:41;;;;;;;8.50;6.53;;;10.80;80.10;;;;;;2065243;28;20100;-84
2021/05/15 02:15:41;;;;;;;9.52;7.00;;;10.70;80.10;;;;;;2067108;28;20136;-84
2021/05/15 02:16:42;;;;;;;9.25;6.75;;;10.70;80.00;;;;;;2065332;28;20023;-84
2021/05/15 02:17:43;;;;;;;9.25;6.55;;;10.70;80.10;;;;;;2065332;28;20051;-84
2021/05/15 02:18:44;;;;;;;10.70;6.97;;;10.70;80.10;;;;;;2076270;28;20140;-83
2021/05/15 02:19:45;;;;;;;9.80;6.88;;;10.70;80.20;;;;;;2078749;28;20068;-84
2021/05/15 02:20:46;;;;;;;9.93;6.78;;;10.70;80.10;;;;;;2065940;28;20440;-84
2021/05/15 02:21:46;;;;;;;8.32;6.13;;;10.70;80.20;;;;;;2074104;28;20057;-84
2021/05/15 02:22:47;;;;;;;9.35;6.95;;;10.70;80.20;;;;;;2087452;28;20076;-84
2021/05/15 02:23:48;;;;;;;10.10;6.75;;;10.70;80.20;;;;;;2087582;28;20045;-85
2021/05/15 02:24:48;;;;;;;8.27;6.40;;;10.70;80.30;;;;;;2078732;28;20119;-85
2021/05/15 02:25:49;;;;;;;8.65;6.60;;;10.70;80.40;;;;;;2081886;28;20430;-84
2021/05/15 02:26:50;;;;;;;9.45;6.70;;;10.70;80.40;;;;;;2082329;28;20041;-84
2021/05/15 02:27:50;;;;;;;9.73;6.75;;;10.70;80.40;;;;;;2073441;28;20026;-84
2021/05/15 02:28:51;;;;;;;9.07;7.25;;;10.70;80.50;;;;;;2072987;28;20072;-84
2021/05/15 02:29:52;;;;;;;8.93;6.95;;;10.70;80.50;;;;;;2077488;28;20042;-85
2021/05/15 02:30:53;;;;;;;9.13;7.07;;;10.70;81.10;;;;;;2064403;28;20142;-84
2021/05/15 02:31:53;;;;;;;9.60;7.03;;;10.60;80.50;;;;;;2074939;28;20022;-84
2021/05/15 02:32:54;;;;;;;9.23;6.30;;;10.60;80.60;;;;;;2086289;28;20060;-84
2021/05/15 02:33:55;;;;;;;10.40;7.00;;;10.60;80.60;;;;;;2090750;28;20021;-84
2021/05/15 02:34:55;;;;;;;9.13;7.10;;;10.60;80.70;;;;;;2083027;28;20513;-84
2021/05/15 02:35:56;;;;;;;8.75;6.65;;;10.60;80.70;;;;;;2065446;28;20038;-84
2021/05/15 02:36:56;;;;;;;8.90;6.95;;;10.60;80.80;;;;;;2050970;28;20115;-84
2021/05/15 02:37:58;;;;;;;9.63;7.13;;;10.60;80.70;;;;;;2065093;28;20037;-84
2021/05/15 02:39:00;;;;;;;10.18;6.53;;;10.60;81.30;;;;;;2071770;28;20104;-83
2021/05/15 02:40:02;;;;;;;9.63;7.22;;;10.60;80.70;;;;;;2073450;28;20038;-84
2021/05/15 02:41:03;;;;;;;8.98;6.57;;;10.60;80.70;;;;;;2081509;28;20033;-84
2021/05/15 02:42:04;;;;;;;9.95;7.43;;;10.50;80.70;;;;;;2080088;28;20108;-84
2021/05/15 02:43:05;;;;;;;8.75;6.90;;;10.50;80.80;;;;;;2073121;28;20499;-84
2021/05/15 02:44:06;;;;;;;9.73;6.80;;;10.50;80.80;;;;;;2073267;28;20030;-84
2021/05/15 02:45:10;;;;;;;9.30;7.20;;;10.50;80.80;;;;;;2075649;28;20468;-84
2021/05/15 02:46:10;;;;;;;8.60;6.78;;;10.50;80.90;;;;;;2073318;28;20041;-84
2021/05/15 02:47:11;;;;;;;9.38;7.20;;;10.50;80.90;;;;;;2065020;28;20029;-84
2021/05/15 02:48:18;;;;;;;9.75;7.50;;;10.40;81.00;;;;;;2066413;28;20034;-84
2021/05/15 02:49:18;;;;;;;10.15;6.97;;;10.40;81.00;;;;;;2081306;28;20032;-84
2021/05/15 02:50:21;;;;;;;9.80;7.38;;;10.40;81.10;;;;;;2067621;28;20030;-85
2021/05/15 02:51:22;;;;;;;9.35;6.95;;;10.40;81.30;;;;;;2063907;28;20030;-85
2021/05/15 02:52:23;;;;;;;10.35;6.65;;;10.40;81.30;;;;;;2072497;28;20117;-84
2021/05/15 02:53:23;;;;;;;10.25;7.30;;;10.40;81.40;;;;;;2071104;28;20022;-84
2021/05/15 02:54:24;;;;;;;11.45;6.88;;;10.40;81.40;;;;;;2070043;28;20041;-84
2021/05/15 02:55:25;;;;;;;8.43;6.90;;;10.40;81.40;;;;;;2059053;28;20470;-84
2021/05/15 02:56:26;;;;;;;9.07;7.15;;;10.40;81.40;;;;;;2063250;28;20027;-83
2021/05/15 02:57:26;;;;;;;9.15;7.40;;;10.40;81.40;;;;;;2075428;28;20022;-84
2021/05/15 02:58:27;;;;;;;9.82;7.43;;;10.30;81.40;;;;;;2073281;28;20522;-84
2021/05/15 02:59:28;;;;;;;9.95;7.03;;;10.40;81.50;;;;;;2073084;28;20057;-84
2021/05/15 03:00:28;;;;;;;10.88;7.68;;;10.30;81.50;;;;;;2069247;28;20026;-83
2021/05/15 03:01:30;;;;;;;9.75;7.25;;;10.30;81.60;;;;;;2070633;28;20053;-84
2021/05/15 03:02:31;;;;;;;10.27;7.90;;;10.30;81.60;;;;;;2073093;28;20022;-83
2021/05/15 03:03:32;;;;;;;9.88;7.57;;;10.30;81.60;;;;;;2073091;28;20033;-84
2021/05/15 03:04:33;;;;;;;9.18;6.85;;;10.30;81.60;;;;;;2073569;28;20072;-84
2021/05/15 03:05:33;;;;;;;9.95;7.68;;;10.30;81.60;;;;;;2070778;28;20045;-84
2021/05/15 03:06:34;;;;;;;10.68;7.75;;;10.30;81.60;;;;;;2056772;28;20035;-84
2021/05/15 03:07:34;;;;;;;10.30;7.65;;;10.30;81.60;;;;;;2059213;28;20117;-84
2021/05/15 03:08:35;;;;;;;9.55;7.30;;;10.30;82.20;;;;;;2048868;28;20476;-84
2021/05/15 03:09:36;;;;;;;9.57;7.18;;;10.30;81.60;;;;;;2048622;29;20477;-84
2021/05/15 03:10:37;;;;;;;10.63;8.15;;;10.40;81.60;;;;;;2060611;28;20030;-84
2021/05/15 03:11:37;;;;;;;9.43;7.25;;;10.40;81.60;;;;;;2073108;28;20026;-84
2021/05/15 03:12:39;;;;;;;10.43;7.95;;;10.40;81.50;;;;;;2072526;28;20053;-83
2021/05/15 03:13:40;;;;;;;9.82;8.18;;;10.30;81.50;;;;;;2073066;28;20022;-84
2021/05/15 03:14:41;;;;;;;10.00;7.68;;;10.40;81.50;;;;;;2072431;28;20121;-84
2021/05/15 03:15:42;;;;;;;11.20;8.15;;;10.30;81.50;;;;;;2072932;28;20042;-84
2021/05/15 03:16:42;;;;;;;11.52;8.57;;;10.30;81.50;;;;;;2056602;28;20492;-83
2021/05/15 03:17:44;;;;;;;10.57;8.02;;;10.40;81.50;;;;;;2053481;28;20042;-84
2021/05/15 03:18:44;;;;;;;10.77;8.30;;;10.30;81.40;;;;;;2064606;28;20030;-83
2021/05/15 03:19:45;;;;;;;11.25;8.07;;;10.30;81.50;;;;;;2064172;28;20038;-83
2021/05/15 03:20:46;;;;;;;11.93;8.52;;;10.30;81.50;;;;;;2071997;28;20113;-83
2021/05/15 03:21:46;;;;;;;10.40;8.35;;;10.30;81.50;;;;;;2071215;28;20038;-84
2021/05/15 03:22:48;;;;;;;11.25;8.48;;;10.30;81.50;;;;;;2056579;28;20122;-83
2021/05/15 03:23:49;;;;;;;11.85;8.98;;;10.30;81.50;;;;;;2064919;28;20030;-83
2021/05/15 03:24:50;;;;;;;10.52;8.32;;;10.30;81.60;;;;;;2080999;28;20025;-83
2021/05/15 03:25:50;;;;;;;10.65;8.68;;;10.30;81.60;;;;;;2074467;28;20029;-83
2021/05/15 03:26:51;;;;;;;9.77;8.27;;;10.30;81.70;;;;;;2064684;28;20493;-83
2021/05/15 03:27:51;;;;;;;12.48;8.90;;;10.30;81.70;;;;;;2072449;28;20022;-83
2021/05/15 03:28:52;;;;;;;10.80;8.38;;;10.30;81.70;;;;;;2072664;28;20104;-83
2021/05/15 03:29:53;;;;;;;11.98;8.60;;;10.30;81.70;;;;;;2071538;28;20069;-83
2021/05/15 03:30:53;;;;;;;10.30;8.32;;;10.20;81.70;;;;;;2071336;28;20115;-83
2021/05/15 03:31:54;;;;;;;11.07;8.77;;;10.30;81.70;;;;;;2072943;28;20030;-83
2021/05/15 03:32:55;;;;;;;11.55;8.50;;;10.30;81.70;;;;;;2072666;28;20520;-83
2021/05/15 03:33:56;;;;;;;10.38;8.10;;;10.20;81.70;;;;;;2080535;28;20523;-83
2021/05/15 03:34:56;;;;;;;12.10;8.40;;;10.30;81.70;;;;;;2080062;28;20415;-83
2021/05/15 03:35:57;;;;;;;11.25;8.70;;;10.30;81.70;;;;;;2081074;28;20484;-84
2021/05/15 03:36:58;;;;;;;10.90;8.05;;;10.30;81.70;;;;;;2080118;28;20076;-83
2021/05/15 03:37:59;;;;;;;10.80;7.68;;;10.30;81.70;;;;;;2064208;28;20469;-83
2021/05/15 03:38:59;;;;;;;10.48;7.90;;;10.30;81.70;;;;;;2072871;28;20018;-84
2021/05/15 03:40:00;;;;;;;11.15;8.27;;;10.30;81.70;;;;;;2072430;28;20096;-84
2021/05/15 03:41:01;;;;;;;11.20;8.20;;;10.30;81.70;;;;;;2072776;28;20140;-84
2021/05/15 03:42:01;;;;;;;12.07;8.48;;;10.30;81.70;;;;;;2081004;28;20037;-83
2021/05/15 03:43:03;;;;;;;12.23;8.60;;;10.40;81.80;;;;;;2072804;28;20575;-84
2021/05/15 03:44:04;;;;;;;10.57;8.23;;;10.30;81.70;;;;;;2081006;28;20026;-84
2021/05/15 03:45:06;;;;;;;11.75;8.30;;;10.40;81.70;;;;;;2065947;28;20432;-84
2021/05/15 03:46:07;;;;;;;12.77;8.27;;;10.40;81.60;;;;;;2064651;28;20054;-84
2021/05/15 03:47:08;;;;;;;10.93;8.57;;;10.40;81.60;;;;;;2080864;28;20393;-83
2021/05/15 03:48:08;;;;;;;10.55;8.10;;;10.30;81.60;;;;;;2066217;28;20424;-84
2021/05/15 03:49:09;;;;;;;11.93;8.45;;;10.30;81.50;;;;;;2066853;28;20022;-84
2021/05/15 03:50:10;;;;;;;11.63;8.55;;;10.30;81.60;;;;;;2080598;28;20037;-84
2021/05/15 03:51:11;;;;;;;11.30;8.27;;;10.30;81.60;;;;;;2080996;28;20034;-84
2021/05/15 03:52:11;;;;;;;10.73;8.43;;;10.30;81.70;;;;;;2056628;28;20465;-84
2021/05/15 03:53:13;;;;;;;10.70;8.07;;;10.30;81.60;;;;;;2056349;28;20169;-84
2021/05/15 03:54:13;;;;;;;10.63;8.27;;;10.40;81.70;;;;;;2072274;28;20137;-84
2021/05/15 03:55:14;;;;;;;10.43;8.45;;;10.40;81.70;;;;;;2056077;28;20504;-84
2021/05/15 03:56:15;;;;;;;10.50;8.35;;;10.40;81.70;;;;;;2064669;28;20115;-84
2021/05/15 03:57:15;;;;;;;10.30;7.93;;;10.40;81.70;;;;;;2073541;28;20468;-84
2021/05/15 03:58:16;;;;;;;11.63;8.65;;;10.40;81.70;;;;;;2071439;28;20384;-83
2021/05/15 03:59:17;;;;;;;11.32;8.60;;;10.40;81.70;;;;;;2074235;28;20505;-84
2021/05/15 04:00:19;;;;;;;11.93;8.70;;;10.40;81.70;;;;;;2068467;28;20670;-83
2021/05/15 04:01:20;;;;;;;11.23;8.45;;;10.40;81.70;;;;;;2071897;28;20571;-83
2021/05/15 04:02:23;;;;;;;10.18;7.88;;;10.40;81.70;;;;;;2081970;28;20031;-84
2021/05/15 04:03:24;;;;;;;12.65;9.02;;;10.40;81.70;;;;;;2074136;28;20444;-84
2021/05/15 04:04:25;;;;;;;12.07;9.02;;;10.50;81.70;;;;;;2066108;28;20030;-84
2021/05/15 04:05:25;;;;;;;10.82;8.38;;;10.50;81.70;;;;;;2065999;28;20038;-84
2021/05/15 04:06:26;;;;;;;10.60;8.00;;;10.50;81.70;;;;;;2059479;28;20495;-83
2021/05/15 04:07:27;;;;;;;11.05;8.15;;;10.50;81.70;;;;;;2077958;28;20490;-84
2021/05/15 04:08:27;;;;;;;12.70;8.40;;;10.50;81.70;;;;;;2074029;28;20498;-84
2021/05/15 04:09:29;;;;;;;9.60;7.88;;;10.50;81.70;;;;;;2049583;28;20473;-84
2021/05/15 04:10:30;;;;;;;11.68;8.38;;;10.50;81.70;;;;;;2050096;28;20027;-84
2021/05/15 04:11:35;;;;;;;10.75;8.30;;;10.50;81.60;;;;;;2050426;28;20390;-84
2021/05/15 04:12:36;;;;;;;11.02;8.30;;;10.50;81.60;;;;;;2066203;28;20031;-84
2021/05/15 04:15:09;;;;;;;11.00;7.70;;;10.50;81.70;;;;;;2065684;28;20050;-84
2021/05/15 04:16:26;;;;;;;10.43;8.00;;;10.50;81.60;;;;;;2066260;28;20058;-84
2021/05/15 04:17:29;;;;;;;10.40;8.02;;;10.50;81.60;;;;;;2064411;28;20500;-84
2021/05/15 04:18:30;;;;;;;11.73;8.13;;;10.60;82.20;;;;;;2081983;28;20499;-84
2021/05/15 04:19:32;;;;;;;13.40;8.38;;;10.60;81.90;;;;;;2077771;28;20500;-84
2021/05/15 04:20:34;;;;;;;11.65;8.50;;;10.60;81.60;;;;;;2079210;28;20042;-84
2021/05/15 04:21:35;;;;;;;10.85;8.52;;;10.60;81.50;;;;;;2073861;28;20033;-84
2021/05/15 04:22:35;;;;;;;11.23;8.18;;;10.60;81.50;;;;;;2066132;28;20156;-84
2021/05/15 04:23:36;;;;;;;11.77;8.15;;;10.70;82.10;;;;;;2069592;28;20053;-84
2021/05/15 04:24:37;;;;;;;12.60;8.63;;;10.70;81.50;;;;;;2057792;28;20041;-84
2021/05/15 04:25:39;;;;;;;11.63;8.75;;;10.70;81.50;;;;;;2068550;28;20124;-84
2021/05/15 04:26:39;;;;;;;10.57;8.18;;;10.70;81.50;;;;;;2065973;28;20094;-84
2021/05/15 04:27:40;;;;;;;10.45;7.90;;;10.70;81.50;;;;;;2058119;28;20214;-83
2021/05/15 04:28:41;;;;;;;11.90;8.15;;;10.70;81.50;;;;;;2066181;28;20106;-84
2021/05/15 04:29:42;;;;;;;11.43;8.38;;;10.70;81.50;;;;;;2069053;28;20463;-84
2021/05/15 04:30:44;;;;;;;11.55;8.75;;;10.70;81.50;;;;;;2080036;28;20088;-84
2021/05/15 04:31:44;;;;;;;11.45;8.65;;;10.70;81.60;;;;;;2080236;28;20029;-84
2021/05/15 04:32:45;;;;;;;11.70;8.40;;;10.70;81.60;;;;;;2073624;28;20388;-83
2021/05/15 04:33:46;;;;;;;12.00;9.07;;;10.70;81.60;;;;;;2065772;28;20182;-84
2021/05/15 04:34:47;;;;;;;13.13;8.73;;;10.70;81.60;;;;;;2068390;28;20040;-83
2021/05/15 04:35:48;;;;;;;12.25;8.50;;;10.70;81.60;;;;;;2080760;28;20045;-83
2021/05/15 04:36:49;;;;;;;12.10;8.85;;;10.70;81.70;;;;;;2074108;28;20018;-83
2021/05/15 04:37:50;;;;;;;11.60;8.35;;;10.70;81.70;;;;;;2073779;28;20030;-83
2021/05/15 04:38:52;;;;;;;11.77;9.05;;;10.70;81.70;;;;;;2081876;28;20036;-84
2021/05/15 04:39:53;;;;;;;13.77;9.20;;;10.70;81.70;;;;;;2071409;28;20045;-83
2021/05/15 04:40:53;;;;;;;11.02;8.70;;;10.80;81.80;;;;;;2074292;28;20062;-84
2021/05/15 04:41:57;;;;;;;10.75;8.63;;;10.80;81.70;;;;;;2065897;28;20531;-83
2021/05/15 04:42:58;;;;;;;12.57;8.35;;;10.80;81.70;;;;;;2059557;28;20031;-84
2021/05/15 04:43:58;;;;;;;13.13;9.30;;;10.80;81.70;;;;;;2082330;28;20053;-84
2021/05/15 04:44:59;;;;;;;12.50;8.55;;;10.80;81.70;;;;;;2065084;28;20416;-84
2021/05/15 04:46:00;;;;;;;10.18;8.15;;;10.80;81.60;;;;;;2049106;28;20035;-84
2021/05/15 04:47:00;;;;;;;10.60;8.38;;;10.90;81.70;;;;;;2049771;28;20516;-84
2021/05/15 04:48:01;;;;;;;10.30;8.20;;;10.90;82.20;;;;;;2061916;28;20042;-84
2021/05/15 04:49:02;;;;;;;12.50;8.82;;;10.90;81.60;;;;;;2073849;28;20018;-84
2021/05/15 04:50:04;;;;;;;14.38;8.48;;;10.90;81.60;;;;;;2078243;28;20076;-84
2021/05/15 04:51:05;;;;;;;12.00;8.82;;;10.90;81.60;;;;;;2065756;28;20078;-83
2021/05/15 04:52:06;;;;;;;11.73;8.70;;;10.90;81.50;;;;;;2057852;28;20122;-82
2021/05/15 04:53:07;;;;;;;11.93;8.57;;;11.00;81.60;;;;;;2073466;28;20026;-83
2021/05/15 04:54:09;;;;;;;11.77;8.77;;;11.00;81.60;;;;;;2065482;28;20027;-82
2021/05/15 04:55:10;;;;;;;11.85;8.50;;;11.00;81.60;;;;;;2058085;28;20027;-83
2021/05/15 04:56:10;;;;;;;12.55;9.23;;;11.00;81.50;;;;;;2073781;28;20068;-82
2021/05/15 04:57:12;;;;;;;11.93;8.73;;;11.00;81.50;;;;;;2073729;28;20028;-82
2021/05/15 04:58:14;;;;;;;11.15;8.35;;;11.00;81.50;;;;;;2064262;28;20030;-82
2021/05/15 04:59:15;;;;;;;11.80;8.68;;;11.00;81.60;;;;;;2058299;28;20025;-82
2021/05/15 05:00:16;;;;;;;12.40;8.80;;;11.10;81.50;;;;;;2072101;28;20038;-83
2021/05/15 05:01:17;;;;;;;10.80;8.60;;;11.10;81.50;;;;;;2074045;28;20022;-82
2021/05/15 05:02:17;;;;;;;11.65;8.65;;;11.10;81.50;;;;;;2073196;28;20370;-82
2021/05/15 05:03:18;;;;;;;11.70;8.52;;;11.10;81.50;;;;;;2065278;28;20369;-83
2021/05/15 05:04:19;;;;;;;10.35;8.25;;;11.20;81.50;;;;;;2064798;28;20057;-83
2021/05/15 05:05:20;;;;;;;11.80;8.70;;;11.20;81.50;;;;;;2073750;28;20034;-83
2021/05/15 05:06:20;;;;;;;11.65;8.40;;;11.20;81.50;;;;;;2057574;28;20191;-83
2021/05/15 05:07:21;;;;;;;10.80;8.23;;;11.20;81.50;;;;;;2057787;28;20495;-83
2021/05/15 05:08:24;;;;;;;11.40;7.95;;;11.20;82.10;;;;;;2073712;28;20447;-84
2021/05/15 05:09:25;;;;;;;11.00;8.35;;;11.20;81.50;;;;;;2064485;28;20031;-82
2021/05/15 05:10:27;;;;;;;11.10;8.13;;;11.20;81.50;;;;;;2073959;28;20022;-83
2021/05/15 05:11:28;;;;;;;12.75;9.02;;;11.20;81.50;;;;;;2065655;28;20082;-83
2021/05/15 05:12:29;;;;;;;11.73;8.95;;;11.20;81.50;;;;;;2066064;28;20520;-83
2021/05/15 05:13:30;;;;;;;12.00;8.77;;;11.20;81.50;;;;;;2065681;28;20092;-83
2021/05/15 05:14:30;;;;;;;11.85;9.13;;;11.20;82.10;;;;;;2065215;28;20393;-83
2021/05/15 05:15:31;;;;;;;11.07;8.60;;;11.20;81.50;;;;;;2069908;28;20531;-83
2021/05/15 05:16:32;;;;;;;11.02;8.35;;;11.20;81.50;;;;;;2065764;28;20031;-84
2021/05/15 05:17:33;;;;;;;12.45;9.15;;;11.20;81.60;;;;;;2073834;28;20030;-83
2021/05/15 05:18:33;;;;;;;10.75;8.60;;;11.20;82.20;;;;;;2076559;28;20029;-83